Newport Municipal Airport Newport US
ICAO: KONP
IATA: ONP
Category: Medium
Scheduled Services: No

Elevation: 160 ft
TransAlt. 18000 ft.

Airport Communications:
AWOS 3:133.9
SEATTLE CNTR:125.8
CTAF/UNICOM:122.8

KONP Zoom In..

Runways:

(A) RW 02 length 3001 ft width 75 ft
---- / hdg 18

(B) RW 16 length 5398 ft width 150 ft
ILS 111.50 / hdg 158

(C) RW 20 length 3001 ft width 75 ft
---- / hdg 198

(D) RW 34 length 5398 ft width 150 ft
---- / hdg 338

Location; KONP
Day. 22 / Time. 04.15 Zulu
* Altimeter: 30.10
* Temperature: 10° c. 50°f.
* Wind from: 220° Speed 10 kn.
Dewpoint: 06° c.
Visibility: 7 Statute Miles.
Clouds: Overcast 2700 ft.

KONP 220415Z AUTO 22010KT 7SM OVC027 10/06 A3010 RMK AO2


Wind From 220°
Speed 10 kn.

jpsM music video
CHECK IT OUT

jpsM - It Moves..

 
jpsmedia.com for Web Design  worldairports.se 2018   terms of use